createdAt,value
2022-11-12T00:00:59.283Z,10.18
2022-11-12T00:03:27.036Z,9.85
2022-11-12T00:05:54.157Z,10.27
2022-11-12T00:08:22.905Z,9.95
2022-11-12T00:10:49.918Z,9.85
2022-11-12T00:13:17.220Z,9.40
2022-11-12T00:15:45.054Z,8.38
2022-11-12T00:18:12.143Z,8.45
2022-11-12T00:20:41.619Z,7.80
2022-11-12T00:23:08.595Z,8.00
2022-11-12T00:25:35.574Z,7.60
2022-11-12T00:28:04.756Z,6.90
2022-11-12T00:30:31.618Z,5.90
2022-11-12T00:33:02.962Z,5.90
2022-11-12T00:35:32.140Z,4.40
2022-11-12T00:38:00.515Z,4.88
2022-11-12T00:40:27.931Z,5.30
2022-11-12T00:42:54.830Z,5.07
2022-11-12T00:45:22.145Z,5.60
2022-11-12T00:47:49.185Z,4.40
2022-11-12T00:50:16.453Z,4.40
2022-11-12T00:52:43.457Z,4.10
2022-11-12T00:55:10.343Z,4.00
2022-11-12T00:57:37.215Z,4.30
2022-11-12T01:00:06.251Z,4.50
2022-11-12T01:02:38.595Z,4.40
2022-11-12T01:05:11.701Z,3.90
2022-11-12T01:07:38.680Z,3.92
2022-11-12T01:10:06.110Z,4.20
2022-11-12T01:12:33.174Z,4.40
2022-11-12T01:15:00.417Z,4.03
2022-11-12T01:17:27.795Z,4.43
2022-11-12T01:19:54.704Z,4.20
2022-11-12T01:22:21.528Z,4.15
2022-11-12T01:24:48.386Z,4.40
2022-11-12T01:27:15.252Z,5.80
2022-11-12T01:29:42.130Z,5.90
2022-11-12T01:32:08.932Z,6.10
2022-11-12T01:34:35.817Z,6.88
2022-11-12T01:37:02.630Z,7.30
2022-11-12T01:39:29.463Z,7.25
2022-11-12T01:41:56.415Z,7.63
2022-11-12T01:44:29.653Z,8.13
2022-11-12T01:47:20.417Z,7.90
2022-11-12T01:49:57.161Z,7.70
2022-11-12T01:52:27.045Z,7.60
2022-11-12T01:54:57.803Z,8.30
2022-11-12T01:57:35.026Z,8.30
2022-11-12T02:00:10.419Z,9.05
2022-11-12T02:02:38.648Z,9.63
2022-11-12T02:05:09.912Z,9.20
2022-11-12T02:07:39.866Z,9.50
2022-11-12T02:10:09.024Z,8.50
2022-11-12T02:13:02.728Z,9.00
2022-11-12T02:15:30.039Z,8.60
2022-11-12T02:17:57.345Z,8.63
2022-11-12T02:20:24.414Z,8.60
2022-11-12T02:22:51.195Z,8.40
2022-11-12T02:25:22.190Z,8.27
2022-11-12T02:27:54.546Z,8.70
2022-11-12T02:30:36.485Z,8.68
2022-11-12T02:33:03.947Z,8.93
2022-11-12T02:35:31.491Z,8.50
2022-11-12T02:37:58.423Z,8.70
2022-11-12T02:40:25.721Z,8.30
2022-11-12T02:42:52.527Z,7.40
2022-11-12T02:45:20.023Z,6.35
2022-11-12T02:47:47.048Z,6.80
2022-11-12T02:50:14.133Z,6.83
2022-11-12T02:52:41.097Z,7.05
2022-11-12T02:55:10.168Z,7.00
2022-11-12T02:57:38.239Z,7.15
2022-11-12T03:00:07.544Z,7.30
2022-11-12T03:02:34.352Z,7.28
2022-11-12T03:05:01.209Z,7.32
2022-11-12T03:07:27.904Z,7.35
2022-11-12T03:09:54.760Z,7.40
2022-11-12T03:12:21.469Z,6.90
2022-11-12T03:14:48.255Z,7.15
2022-11-12T03:17:14.964Z,6.60
2022-11-12T03:19:41.721Z,6.88
2022-11-12T03:22:08.647Z,6.80
2022-11-12T03:24:35.330Z,6.70
2022-11-12T03:27:02.251Z,5.95
2022-11-12T03:29:28.952Z,6.47
2022-11-12T03:31:56.026Z,6.40
2022-11-12T03:34:22.799Z,6.05
2022-11-12T03:36:49.681Z,6.13
2022-11-12T03:39:16.388Z,5.90
2022-11-12T03:41:44.996Z,6.00
2022-11-12T03:44:11.734Z,5.40
2022-11-12T03:46:43.898Z,5.45
2022-11-12T03:49:11.160Z,5.03
2022-11-12T03:51:38.108Z,4.90
2022-11-12T03:54:04.906Z,4.70
2022-11-12T03:56:31.845Z,4.60
2022-11-12T03:58:58.526Z,4.10
2022-11-12T04:01:25.613Z,4.50
2022-11-12T04:03:52.384Z,4.25
2022-11-12T04:06:37.565Z,4.78
2022-11-12T04:09:04.295Z,4.80
2022-11-12T04:11:31.128Z,4.80
2022-11-12T04:13:57.842Z,4.40
2022-11-12T04:16:43.543Z,4.80
2022-11-12T04:19:32.428Z,4.80
2022-11-12T04:22:06.342Z,4.90
2022-11-12T04:24:53.014Z,4.68
2022-11-12T04:27:26.067Z,4.80
2022-11-12T04:30:12.160Z,5.22
2022-11-12T04:32:48.802Z,4.75
2022-11-12T04:35:16.356Z,4.80
2022-11-12T04:37:46.166Z,4.55
2022-11-12T04:40:39.024Z,4.80
2022-11-12T04:43:27.859Z,5.20
2022-11-12T04:45:55.666Z,5.40
2022-11-12T04:48:23.565Z,5.35
2022-11-12T04:50:55.586Z,5.05
2022-11-12T04:53:25.727Z,5.38
2022-11-12T04:55:54.468Z,4.65
2022-11-12T04:58:21.933Z,4.50
2022-11-12T05:00:50.021Z,4.80
2022-11-12T05:03:17.237Z,4.90
2022-11-12T05:05:44.315Z,5.00
2022-11-12T05:08:11.030Z,4.82
2022-11-12T05:10:37.840Z,5.30
2022-11-12T05:13:04.655Z,4.90
2022-11-12T05:15:31.414Z,4.57
2022-11-12T05:17:58.187Z,4.90
2022-11-12T05:20:25.021Z,5.20
2022-11-12T05:23:05.488Z,5.17
2022-11-12T05:25:34.421Z,5.30
2022-11-12T05:28:01.134Z,5.45
2022-11-12T05:30:27.899Z,5.30
2022-11-12T05:32:54.656Z,5.20
2022-11-12T05:35:21.424Z,5.10
2022-11-12T05:37:48.139Z,5.70
2022-11-12T05:40:15.000Z,5.28
2022-11-12T05:42:41.752Z,6.05
2022-11-12T05:45:10.108Z,5.70
2022-11-12T05:47:36.826Z,5.90
2022-11-12T05:50:03.857Z,6.38
2022-11-12T05:52:30.564Z,5.20
2022-11-12T05:54:57.378Z,5.30
2022-11-12T05:57:26.543Z,5.70
2022-11-12T05:59:53.319Z,5.53
2022-11-12T06:02:20.100Z,4.70
2022-11-12T06:04:46.887Z,4.40
2022-11-12T06:07:13.691Z,4.18
2022-11-12T06:09:40.477Z,5.25
2022-11-12T06:12:08.429Z,4.90
2022-11-12T06:14:35.333Z,4.72
2022-11-12T06:17:02.093Z,3.50
2022-11-12T06:19:28.835Z,3.10
2022-11-12T06:21:55.591Z,3.43
2022-11-12T06:24:22.562Z,3.45
2022-11-12T06:26:49.616Z,4.90
2022-11-12T06:29:16.406Z,4.35
2022-11-12T06:31:43.111Z,4.70
2022-11-12T06:34:09.886Z,3.60
2022-11-12T06:36:36.646Z,4.00
2022-11-12T06:39:03.682Z,4.50
2022-11-12T06:41:30.385Z,5.05
2022-11-12T06:43:57.136Z,5.10
2022-11-12T06:46:23.831Z,6.45
2022-11-12T06:48:50.561Z,7.68
2022-11-12T06:51:21.515Z,7.38
2022-11-12T06:53:48.858Z,4.25
2022-11-12T06:56:15.931Z,3.83
2022-11-12T06:58:43.059Z,3.50
2022-11-12T07:01:12.751Z,3.22
2022-11-12T07:03:41.809Z,3.55
2022-11-12T07:06:14.653Z,3.70
2022-11-12T07:08:41.999Z,3.90
2022-11-12T07:11:09.006Z,4.78
2022-11-12T07:13:36.565Z,4.50
2022-11-12T07:16:05.615Z,4.72
2022-11-12T07:18:33.352Z,4.70
2022-11-12T07:21:05.505Z,3.90
2022-11-12T07:23:33.929Z,5.38
2022-11-12T07:26:02.715Z,5.15
2022-11-12T07:28:30.224Z,4.50
2022-11-12T07:31:01.754Z,5.10
2022-11-12T07:33:29.528Z,4.90
2022-11-12T07:36:00.224Z,5.70
2022-11-12T07:38:28.712Z,4.65
2022-11-12T07:41:15.735Z,5.50
2022-11-12T07:43:44.717Z,4.88
2022-11-12T07:46:19.945Z,4.90
2022-11-12T07:48:47.049Z,4.93
2022-11-12T07:51:19.176Z,4.63
2022-11-12T07:53:47.621Z,4.60
2022-11-12T07:56:17.827Z,4.80
2022-11-12T07:58:45.178Z,4.80
2022-11-12T08:01:35.812Z,4.60
2022-11-12T08:04:04.680Z,4.40
2022-11-12T08:06:32.263Z,4.72
2022-11-12T08:09:01.105Z,5.10
2022-11-12T08:11:28.022Z,4.07
2022-11-12T08:13:54.831Z,4.20
2022-11-12T08:16:25.224Z,4.10
2022-11-12T08:18:52.004Z,4.25
2022-11-12T08:21:19.831Z,4.78
2022-11-12T08:23:47.005Z,5.00
2022-11-12T08:26:16.867Z,5.22
2022-11-12T08:28:43.949Z,5.43
2022-11-12T08:31:23.033Z,5.57
2022-11-12T08:33:49.991Z,5.22
2022-11-12T08:36:17.788Z,5.10
2022-11-12T08:38:45.407Z,5.13
2022-11-12T08:41:13.909Z,5.10
2022-11-12T08:43:41.709Z,4.72
2022-11-12T08:46:08.843Z,4.57
2022-11-12T08:48:36.216Z,5.00
2022-11-12T08:51:04.850Z,4.80
2022-11-12T08:53:32.078Z,4.90
2022-11-12T08:55:59.306Z,6.03
2022-11-12T08:58:27.213Z,6.82
2022-11-12T09:00:54.695Z,7.55
2022-11-12T09:03:24.976Z,7.70
2022-11-12T09:05:52.227Z,8.40
2022-11-12T09:08:22.367Z,7.65
2022-11-12T09:10:50.507Z,7.40
2022-11-12T09:13:18.327Z,7.22
2022-11-12T09:15:45.924Z,7.15
2022-11-12T09:18:18.158Z,6.80
2022-11-12T09:20:45.623Z,6.70
2022-11-12T09:23:17.841Z,7.10
2022-11-12T09:25:45.327Z,7.65
2022-11-12T09:28:14.826Z,8.50
2022-11-12T09:30:47.244Z,8.77
2022-11-12T09:33:18.895Z,9.45
2022-11-12T09:35:46.915Z,9.45
2022-11-12T09:38:17.834Z,9.73
2022-11-12T09:40:51.958Z,9.80
2022-11-12T09:43:23.300Z,9.30
2022-11-12T09:46:06.882Z,16.17
2022-11-12T09:48:44.461Z,10.07
2022-11-12T09:51:21.817Z,8.98
2022-11-12T09:53:55.700Z,9.75
2022-11-12T09:56:23.852Z,9.02
2022-11-12T09:58:51.768Z,9.63
2022-11-12T10:01:43.936Z,8.98
2022-11-12T10:04:45.523Z,8.90
2022-11-12T10:07:16.864Z,9.63
2022-11-12T10:09:56.200Z,9.18
2022-11-12T10:12:41.524Z,9.38
2022-11-12T10:15:46.542Z,10.27
2022-11-12T10:18:49.072Z,10.25
2022-11-12T10:21:32.737Z,10.25
2022-11-12T10:24:01.048Z,8.88
2022-11-12T10:26:30.684Z,7.70
2022-11-12T10:29:16.965Z,7.40
2022-11-12T10:31:43.896Z,8.18
2022-11-12T10:34:13.393Z,8.80
2022-11-12T10:36:48.900Z,8.55
2022-11-12T10:39:36.567Z,10.60
2022-11-12T10:42:07.991Z,9.23
2022-11-12T10:44:34.901Z,8.57
2022-11-12T10:47:24.834Z,7.70
2022-11-12T10:50:10.301Z,7.90
2022-11-12T10:52:37.413Z,8.07
2022-11-12T10:55:22.937Z,7.55
2022-11-12T10:58:03.720Z,7.50
2022-11-12T11:00:30.516Z,7.80
2022-11-12T11:02:58.025Z,8.13
2022-11-12T11:05:33.727Z,8.43
2022-11-12T11:08:01.812Z,8.60
2022-11-12T11:10:34.210Z,7.90
2022-11-12T11:13:22.633Z,8.00
2022-11-12T11:15:58.368Z,7.97
2022-11-12T11:18:25.871Z,9.75
2022-11-12T11:21:03.812Z,10.63
2022-11-12T11:23:56.917Z,11.70
2022-11-12T11:26:38.511Z,11.52
2022-11-12T11:29:26.512Z,11.07
2022-11-12T11:32:18.711Z,10.80
2022-11-12T11:35:20.904Z,11.50
2022-11-12T11:37:59.541Z,11.40
2022-11-12T11:40:35.964Z,11.32
2022-11-12T11:43:27.582Z,10.32
2022-11-12T11:46:32.528Z,9.80
2022-11-12T11:49:36.427Z,10.37
2022-11-12T11:52:31.078Z,10.90
2022-11-12T11:55:03.563Z,11.05
2022-11-12T11:57:37.567Z,11.65
2022-11-12T12:00:15.355Z,12.23
2022-11-12T12:02:50.844Z,11.45
2022-11-12T12:05:33.880Z,11.07
2022-11-12T12:08:10.585Z,12.43
2022-11-12T12:11:09.102Z,13.75
2022-11-12T12:13:51.320Z,14.80
2022-11-12T12:16:24.107Z,32.15
2022-11-12T12:19:07.908Z,20.83
2022-11-12T12:21:38.931Z,13.73
2022-11-12T12:24:24.112Z,13.77
2022-11-12T12:26:58.463Z,13.88
2022-11-12T12:29:43.441Z,14.15
2022-11-12T12:32:20.446Z,13.60
2022-11-12T12:34:57.672Z,14.52
2022-11-12T12:37:30.263Z,14.13
2022-11-12T12:40:04.991Z,13.95
2022-11-12T12:42:45.002Z,14.33
2022-11-12T12:45:37.858Z,15.35
2022-11-12T12:48:07.309Z,15.18
2022-11-12T12:50:37.839Z,15.43
2022-11-12T12:53:22.636Z,13.55
2022-11-12T12:55:51.639Z,14.15
2022-11-12T12:58:25.898Z,15.70
2022-11-12T13:00:59.867Z,16.20
2022-11-12T13:03:45.020Z,14.37
2022-11-12T13:06:25.655Z,16.75
2022-11-12T13:09:02.408Z,14.40
2022-11-12T13:12:00.010Z,13.80
2022-11-12T13:14:38.648Z,18.58
2022-11-12T13:17:10.803Z,21.88
2022-11-12T13:19:57.283Z,17.15
2022-11-12T13:22:24.114Z,14.23
2022-11-12T13:25:13.036Z,24.75
2022-11-12T13:27:44.352Z,15.82
2022-11-12T13:30:14.237Z,22.13
2022-11-12T13:32:48.359Z,17.00
2022-11-12T13:35:37.478Z,15.67
2022-11-12T13:38:12.844Z,17.08
2022-11-12T13:40:46.852Z,17.33
2022-11-12T13:43:27.676Z,16.83
2022-11-12T13:46:03.651Z,15.70
2022-11-12T13:48:58.644Z,15.20
2022-11-12T13:51:39.305Z,15.00
2022-11-12T13:54:32.535Z,15.23
2022-11-12T13:57:23.938Z,14.68
2022-11-12T14:00:22.526Z,15.43
2022-11-12T14:02:54.182Z,14.77
2022-11-12T14:05:25.142Z,14.75
2022-11-12T14:08:07.129Z,14.38
2022-11-12T14:11:06.171Z,14.70
2022-11-12T14:13:54.485Z,15.93
2022-11-12T14:16:50.175Z,15.80
2022-11-12T14:19:44.839Z,16.77
2022-11-12T14:22:14.656Z,17.15
2022-11-12T14:24:42.207Z,16.52
2022-11-12T14:27:36.027Z,17.27
2022-11-12T14:30:23.952Z,17.70
2022-11-12T14:32:54.065Z,16.88
2022-11-12T14:35:41.166Z,17.15
2022-11-12T14:38:26.866Z,21.58
2022-11-12T14:41:11.675Z,16.95
2022-11-12T14:43:43.141Z,16.40
2022-11-12T14:46:28.830Z,15.90
2022-11-12T14:49:04.075Z,16.70
2022-11-12T14:51:34.383Z,16.67
2022-11-12T14:54:10.463Z,15.60
2022-11-12T14:56:43.367Z,16.30
2022-11-12T14:59:15.968Z,15.50
2022-11-12T15:02:30.437Z,16.30
2022-11-12T15:05:02.887Z,15.83
2022-11-12T15:07:33.465Z,17.10
2022-11-12T15:10:01.544Z,15.35
2022-11-12T15:12:32.708Z,16.10
2022-11-12T15:15:29.167Z,15.80
2022-11-12T15:18:01.420Z,16.98
2022-11-12T15:20:28.449Z,16.38
2022-11-12T15:22:55.517Z,17.17
2022-11-12T15:25:30.688Z,15.70
2022-11-12T15:28:25.805Z,15.57
2022-11-12T15:31:09.252Z,17.90
2022-11-12T15:33:36.066Z,16.60
2022-11-12T15:36:03.073Z,17.10
2022-11-12T15:38:38.402Z,15.17
2022-11-12T15:41:05.770Z,15.38
2022-11-12T15:43:36.372Z,14.30
2022-11-12T15:46:03.430Z,16.85
2022-11-12T15:48:30.233Z,16.45
2022-11-12T15:50:56.983Z,14.73
2022-11-12T15:53:23.813Z,14.55
2022-11-12T15:55:51.999Z,15.95
2022-11-12T15:58:24.467Z,17.25
2022-11-12T16:00:51.320Z,18.27
2022-11-12T16:03:20.359Z,20.85
2022-11-12T16:05:48.436Z,19.60
2022-11-12T16:08:15.327Z,15.60
2022-11-12T16:10:44.603Z,14.93
2022-11-12T16:13:18.776Z,17.42
2022-11-12T16:15:45.612Z,15.05
2022-11-12T16:18:12.620Z,15.35
2022-11-12T16:20:39.449Z,14.50
2022-11-12T16:23:06.214Z,13.90
2022-11-12T16:25:35.892Z,13.65
2022-11-12T16:28:02.903Z,13.93
2022-11-12T16:30:32.931Z,15.73
2022-11-12T16:33:00.797Z,14.02
2022-11-12T16:35:29.740Z,13.50
2022-11-12T16:37:56.545Z,13.13
2022-11-12T16:40:26.635Z,13.82
2022-11-12T16:42:53.486Z,14.57
2022-11-12T16:45:23.140Z,15.63
2022-11-12T16:47:53.755Z,13.60
2022-11-12T16:50:23.683Z,14.80
2022-11-12T16:52:50.664Z,15.52
2022-11-12T16:55:17.443Z,16.02
2022-11-12T16:57:44.241Z,14.82
2022-11-12T17:00:13.640Z,16.80
2022-11-12T17:02:45.184Z,14.70
2022-11-12T17:05:20.384Z,15.63
2022-11-12T17:07:47.937Z,16.38
2022-11-12T17:10:15.102Z,15.63
2022-11-12T17:12:41.873Z,15.32
2022-11-12T17:15:09.016Z,14.85
2022-11-12T17:17:35.735Z,15.20
2022-11-12T17:20:02.774Z,16.45
2022-11-12T17:22:30.088Z,15.00
2022-11-12T17:24:56.827Z,16.00
2022-11-12T17:27:23.599Z,17.03
2022-11-12T17:29:50.326Z,16.35
2022-11-12T17:32:17.119Z,16.50
2022-11-12T17:34:43.887Z,17.60
2022-11-12T17:37:10.667Z,16.00
2022-11-12T17:39:37.504Z,15.25
2022-11-12T17:42:04.657Z,15.40
2022-11-12T17:44:31.405Z,14.93
2022-11-12T17:46:58.354Z,15.70
2022-11-12T17:49:25.085Z,15.77
2022-11-12T17:51:52.341Z,16.20
2022-11-12T17:54:20.380Z,17.10
2022-11-12T17:56:47.092Z,17.40
2022-11-12T17:59:13.879Z,15.80
2022-11-12T18:01:40.753Z,15.57
2022-11-12T18:04:10.349Z,16.02
2022-11-12T18:06:37.171Z,16.52
2022-11-12T18:09:08.067Z,19.05
2022-11-12T18:11:45.089Z,18.20
2022-11-12T18:14:12.424Z,20.20
2022-11-12T18:16:39.209Z,18.80
2022-11-12T18:19:10.564Z,19.83
2022-11-12T18:21:39.871Z,18.13
2022-11-12T18:24:12.142Z,19.45
2022-11-12T18:26:39.180Z,16.80
2022-11-12T18:29:07.252Z,15.68
2022-11-12T18:31:33.974Z,15.90
2022-11-12T18:34:00.787Z,15.97
2022-11-12T18:36:28.473Z,14.60
2022-11-12T18:38:55.898Z,13.52
2022-11-12T18:41:30.098Z,14.30
2022-11-12T18:43:56.988Z,14.85
2022-11-12T18:46:23.881Z,15.27
2022-11-12T18:48:50.953Z,14.40
2022-11-12T18:51:19.128Z,14.70
2022-11-12T18:53:46.505Z,13.63
2022-11-12T18:56:19.212Z,14.32
2022-11-12T18:58:46.473Z,13.82
2022-11-12T19:01:20.278Z,13.07
2022-11-12T19:03:48.093Z,13.27
2022-11-12T19:06:14.906Z,14.37
2022-11-12T19:08:41.688Z,17.77
2022-11-12T19:11:14.037Z,14.82
2022-11-12T19:13:42.340Z,14.30
2022-11-12T19:16:16.693Z,15.50
2022-11-12T19:18:43.608Z,15.50
2022-11-12T19:21:15.909Z,15.60
2022-11-12T19:23:50.008Z,15.93
2022-11-12T19:26:19.716Z,15.07
2022-11-12T19:28:46.472Z,15.65
2022-11-12T19:31:19.031Z,14.55
2022-11-12T19:33:47.278Z,16.00
2022-11-12T19:36:16.816Z,16.70
2022-11-12T19:38:43.701Z,13.07
2022-11-12T19:41:19.436Z,13.82
2022-11-12T19:43:47.343Z,14.60
2022-11-12T19:46:14.901Z,15.13
2022-11-12T19:48:41.896Z,14.52
2022-11-12T19:51:11.433Z,14.20
2022-11-12T19:53:44.630Z,13.47
2022-11-12T19:56:14.562Z,15.13
2022-11-12T19:58:45.811Z,16.50
2022-11-12T20:01:14.985Z,13.32
2022-11-12T20:03:42.109Z,13.10
2022-11-12T20:06:14.503Z,14.23
2022-11-12T20:08:41.869Z,14.40
2022-11-12T20:11:09.191Z,12.90
2022-11-12T20:13:36.347Z,14.20
2022-11-12T20:16:08.215Z,13.45
2022-11-12T20:18:34.973Z,12.93
2022-11-12T20:21:05.035Z,14.48
2022-11-12T20:23:33.672Z,20.48
2022-11-12T20:26:06.827Z,16.95
2022-11-12T20:28:35.296Z,13.60
2022-11-12T20:31:22.585Z,14.00
2022-11-12T20:33:50.920Z,13.50
2022-11-12T20:36:20.823Z,14.75
2022-11-12T20:38:50.168Z,12.30
2022-11-12T20:41:22.736Z,11.90
2022-11-12T20:44:00.426Z,11.95
2022-11-12T20:46:27.560Z,11.82
2022-11-12T20:48:54.930Z,12.43
2022-11-12T20:51:25.526Z,13.10
2022-11-12T20:53:58.857Z,12.25
2022-11-12T20:56:28.572Z,12.55
2022-11-12T20:58:55.309Z,13.05
2022-11-12T21:01:23.614Z,12.63
2022-11-12T21:03:51.164Z,13.27
2022-11-12T21:06:20.937Z,12.43
2022-11-12T21:08:48.125Z,11.80
2022-11-12T21:11:16.984Z,12.02
2022-11-12T21:13:44.108Z,12.30
2022-11-12T21:16:12.508Z,12.73
2022-11-12T21:18:39.559Z,11.80
2022-11-12T21:21:07.912Z,12.43
2022-11-12T21:23:37.111Z,12.32
2022-11-12T21:26:21.516Z,11.43
2022-11-12T21:28:50.819Z,11.80
2022-11-12T21:31:20.355Z,10.90
2022-11-12T21:33:55.008Z,11.30
2022-11-12T21:36:22.616Z,10.80
2022-11-12T21:38:49.830Z,11.05
2022-11-12T21:41:19.241Z,13.70
2022-11-12T21:43:50.695Z,11.23
2022-11-12T21:46:21.060Z,10.18
2022-11-12T21:48:53.515Z,9.70
2022-11-12T21:51:23.948Z,10.20
2022-11-12T21:53:59.122Z,10.38
2022-11-12T21:56:26.976Z,11.43
2022-11-12T21:58:59.336Z,10.70
2022-11-12T22:01:28.884Z,10.65
2022-11-12T22:03:57.305Z,10.73
2022-11-12T22:06:26.479Z,10.55
2022-11-12T22:08:54.675Z,10.30
2022-11-12T22:11:21.711Z,10.90
2022-11-12T22:13:49.187Z,9.38
2022-11-12T22:16:19.291Z,8.30
2022-11-12T22:18:49.161Z,8.80
2022-11-12T22:21:18.739Z,8.90
2022-11-12T22:23:46.157Z,8.90
2022-11-12T22:26:16.013Z,8.45
2022-11-12T22:28:43.067Z,8.70
2022-11-12T22:31:12.910Z,8.57
2022-11-12T22:33:39.980Z,7.50
2022-11-12T22:36:12.056Z,8.43
2022-11-12T22:38:41.264Z,8.00
2022-11-12T22:41:16.307Z,8.43
2022-11-12T22:43:46.539Z,8.20
2022-11-12T22:46:16.363Z,8.00
2022-11-12T22:48:43.375Z,7.63
2022-11-12T22:51:14.780Z,7.30
2022-11-12T22:53:41.770Z,7.95
2022-11-12T22:56:14.003Z,7.50
2022-11-12T22:58:42.636Z,7.80
2022-11-12T23:01:21.553Z,7.90
2022-11-12T23:03:49.420Z,7.40
2022-11-12T23:06:16.774Z,7.70
2022-11-12T23:08:43.814Z,8.35
2022-11-12T23:11:13.608Z,7.95
2022-11-12T23:13:41.055Z,7.70
2022-11-12T23:16:10.732Z,7.80
2022-11-12T23:18:37.616Z,7.95
2022-11-12T23:21:06.986Z,8.30
2022-11-12T23:23:34.902Z,8.40
2022-11-12T23:26:31.120Z,7.70
2022-11-12T23:28:58.059Z,7.90
2022-11-12T23:31:28.347Z,8.10
2022-11-12T23:33:57.452Z,8.48
2022-11-12T23:36:25.573Z,7.60
2022-11-12T23:38:53.125Z,7.37
2022-11-12T23:41:22.816Z,8.00
2022-11-12T23:43:50.417Z,7.28
2022-11-12T23:46:17.372Z,7.85
2022-11-12T23:48:44.165Z,7.65
2022-11-12T23:51:14.078Z,7.50
2022-11-12T23:53:41.226Z,7.22
2022-11-12T23:56:10.929Z,7.90
2022-11-12T23:58:39.539Z,7.50
